createdAt,value
2023-03-07T00:00:56.241Z,35.58
2023-03-07T00:06:05.540Z,35.73
2023-03-07T00:11:11.466Z,35.97
2023-03-07T00:16:16.957Z,35.38
2023-03-07T00:21:23.961Z,35.80
2023-03-07T00:26:29.788Z,35.57
2023-03-07T00:31:34.570Z,36.14
2023-03-07T00:36:39.426Z,35.62
2023-03-07T00:41:44.043Z,35.70
2023-03-07T00:46:48.633Z,35.61
2023-03-07T00:51:53.519Z,35.68
2023-03-07T00:56:58.360Z,35.97
2023-03-07T01:02:03.390Z,35.96
2023-03-07T01:07:07.644Z,36.16
2023-03-07T01:12:13.356Z,36.44
2023-03-07T01:17:18.058Z,36.43
2023-03-07T01:22:22.854Z,36.23
2023-03-07T01:27:28.108Z,35.12
2023-03-07T01:32:33.779Z,35.82
2023-03-07T01:37:38.673Z,35.52
2023-03-07T01:42:45.110Z,35.97
2023-03-07T01:47:50.653Z,36.30
2023-03-07T01:53:02.332Z,35.30
2023-03-07T01:58:12.270Z,35.36
2023-03-07T02:03:24.391Z,35.29
2023-03-07T02:08:32.276Z,35.96
2023-03-07T02:13:37.042Z,35.68
2023-03-07T02:18:49.777Z,35.25
2023-03-07T02:24:23.950Z,35.02
2023-03-07T02:29:29.655Z,34.87
2023-03-07T02:34:35.482Z,34.86
2023-03-07T02:39:49.811Z,35.08
2023-03-07T02:45:02.184Z,34.57
2023-03-07T02:50:13.826Z,34.39
2023-03-07T02:55:23.096Z,34.52
2023-03-07T03:00:40.488Z,34.18
2023-03-07T03:05:45.732Z,34.44
2023-03-07T03:10:55.830Z,34.49
2023-03-07T03:16:03.264Z,34.17
2023-03-07T03:21:13.726Z,34.54
2023-03-07T03:26:18.952Z,34.23
2023-03-07T03:31:23.865Z,34.29
2023-03-07T03:36:29.908Z,33.23
2023-03-07T03:41:40.364Z,33.35
2023-03-07T03:46:46.007Z,32.98
2023-03-07T03:51:51.608Z,32.84
2023-03-07T03:56:56.990Z,32.63
2023-03-07T04:02:02.457Z,32.73
2023-03-07T04:07:07.654Z,32.82
2023-03-07T04:12:12.762Z,32.56
2023-03-07T04:17:18.060Z,31.85
2023-03-07T04:22:23.319Z,32.61
2023-03-07T04:27:28.741Z,32.09
2023-03-07T04:32:35.571Z,31.67
2023-03-07T04:37:40.791Z,31.83
2023-03-07T04:42:46.025Z,31.57
2023-03-07T04:47:51.266Z,31.94
2023-03-07T04:52:56.773Z,31.19
2023-03-07T04:58:02.418Z,30.83
2023-03-07T05:03:08.321Z,31.71
2023-03-07T05:08:13.641Z,31.49
2023-03-07T05:13:18.934Z,31.67
2023-03-07T05:18:24.356Z,31.21
2023-03-07T05:23:31.184Z,31.10
2023-03-07T05:28:36.331Z,31.56
2023-03-07T05:33:43.873Z,30.51
2023-03-07T05:38:49.490Z,30.87
2023-03-07T05:43:56.118Z,29.93
2023-03-07T05:49:01.278Z,29.44
2023-03-07T05:54:07.368Z,30.44
2023-03-07T05:59:16.649Z,30.12
2023-03-07T06:04:25.010Z,29.28
2023-03-07T06:09:29.579Z,30.07
2023-03-07T06:14:36.491Z,29.82
2023-03-07T06:19:41.626Z,28.77
2023-03-07T06:24:46.725Z,29.56
2023-03-07T06:29:52.277Z,27.79
2023-03-07T06:34:57.473Z,29.69
2023-03-07T06:40:08.864Z,29.03
2023-03-07T06:45:15.702Z,29.83
2023-03-07T06:50:26.630Z,29.18
2023-03-07T06:55:40.404Z,29.77
2023-03-07T07:00:48.434Z,29.76
2023-03-07T07:05:54.548Z,29.75
2023-03-07T07:11:01.029Z,29.05
2023-03-07T07:16:10.049Z,29.63
2023-03-07T07:21:16.906Z,29.57
2023-03-07T07:26:22.104Z,29.67
2023-03-07T07:31:28.737Z,29.68
2023-03-07T07:36:35.514Z,29.52
2023-03-07T07:41:40.819Z,30.05
2023-03-07T07:46:45.986Z,29.81
2023-03-07T07:51:50.670Z,28.77
2023-03-07T07:56:56.040Z,29.37
2023-03-07T08:02:02.035Z,29.94
2023-03-07T08:07:08.389Z,29.28
2023-03-07T08:12:14.087Z,29.49
2023-03-07T08:17:19.375Z,29.23
2023-03-07T08:22:24.363Z,28.91
2023-03-07T08:27:30.075Z,29.75
2023-03-07T08:32:35.213Z,29.72
2023-03-07T08:37:40.982Z,29.68
2023-03-07T08:42:46.106Z,29.56
2023-03-07T08:47:53.812Z,29.96
2023-03-07T08:52:58.865Z,30.18
2023-03-07T08:58:03.919Z,29.96
2023-03-07T09:03:10.125Z,29.64
2023-03-07T09:08:15.222Z,29.77
2023-03-07T09:13:20.324Z,29.36
2023-03-07T09:18:25.452Z,30.15
2023-03-07T09:23:30.676Z,30.10
2023-03-07T09:28:35.941Z,30.14
2023-03-07T09:33:41.689Z,30.19
2023-03-07T09:38:47.012Z,30.58
2023-03-07T09:44:10.156Z,30.40
2023-03-07T09:49:53.978Z,30.51
2023-03-07T09:55:03.097Z,30.24
2023-03-07T10:00:19.013Z,30.61
2023-03-07T10:05:30.181Z,30.34
2023-03-07T10:10:51.257Z,30.71
2023-03-07T10:16:10.674Z,30.45
2023-03-07T10:22:03.485Z,30.75
2023-03-07T10:27:17.006Z,30.63
2023-03-07T10:32:39.097Z,30.46
2023-03-07T10:37:55.234Z,31.11
2023-03-07T10:43:01.665Z,31.21
2023-03-07T10:48:18.312Z,30.94
2023-03-07T10:53:33.677Z,31.18
2023-03-07T10:58:38.730Z,31.19
2023-03-07T11:03:58.526Z,31.29
2023-03-07T11:09:20.681Z,31.42
2023-03-07T11:14:30.116Z,31.17
2023-03-07T11:19:39.331Z,30.90
2023-03-07T11:24:53.090Z,32.10
2023-03-07T11:30:39.424Z,31.12
2023-03-07T11:36:04.245Z,32.23
2023-03-07T11:41:29.924Z,31.89
2023-03-07T11:46:37.235Z,32.21
2023-03-07T11:52:02.872Z,32.20
2023-03-07T11:57:37.958Z,31.50
2023-03-07T12:03:06.845Z,31.89
2023-03-07T12:08:40.171Z,32.43
2023-03-07T12:13:44.733Z,33.21
2023-03-07T12:19:38.178Z,33.55
2023-03-07T12:25:11.958Z,33.24
2023-03-07T12:30:55.301Z,32.89
2023-03-07T12:36:11.318Z,33.61
2023-03-07T12:41:28.653Z,33.21
2023-03-07T12:47:22.502Z,33.06
2023-03-07T12:52:56.572Z,33.32
2023-03-07T12:58:23.252Z,32.93
2023-03-07T13:03:50.083Z,32.57
2023-03-07T13:08:59.788Z,33.17
2023-03-07T13:14:07.973Z,33.14
2023-03-07T13:19:36.906Z,32.37
2023-03-07T13:24:43.081Z,33.30
2023-03-07T13:30:12.248Z,33.65
2023-03-07T13:35:35.401Z,33.84
2023-03-07T13:40:43.541Z,34.42
2023-03-07T13:46:05.919Z,33.24
2023-03-07T13:51:12.121Z,34.11
2023-03-07T13:56:16.881Z,33.57
2023-03-07T14:01:29.182Z,33.69
2023-03-07T14:06:37.897Z,34.09
2023-03-07T14:11:58.060Z,33.58
2023-03-07T14:17:24.337Z,33.15
2023-03-07T14:22:40.445Z,33.52
2023-03-07T14:28:03.762Z,34.09
2023-03-07T14:33:08.412Z,34.48
2023-03-07T14:38:30.933Z,33.64
2023-03-07T14:43:38.592Z,33.81
2023-03-07T14:49:11.586Z,33.25
2023-03-07T14:54:23.331Z,34.06
2023-03-07T14:59:29.677Z,33.91
2023-03-07T15:04:36.973Z,33.75
2023-03-07T15:09:41.766Z,34.26
2023-03-07T15:14:55.609Z,33.63
2023-03-07T15:20:09.371Z,33.77
2023-03-07T15:25:26.207Z,34.56
2023-03-07T15:30:34.927Z,34.28
2023-03-07T15:35:40.015Z,34.99
2023-03-07T15:40:45.428Z,35.11
2023-03-07T15:46:08.335Z,34.27
2023-03-07T15:51:24.796Z,34.38
2023-03-07T15:56:38.957Z,34.24
2023-03-07T16:01:43.798Z,35.00
2023-03-07T16:06:48.572Z,34.99
2023-03-07T16:11:53.405Z,34.21
2023-03-07T16:17:04.068Z,33.68
2023-03-07T16:22:16.328Z,33.69
2023-03-07T16:27:24.525Z,33.78
2023-03-07T16:32:29.240Z,34.09
2023-03-07T16:37:34.110Z,34.64
2023-03-07T16:42:39.520Z,34.79
2023-03-07T16:47:44.916Z,34.75
2023-03-07T16:52:49.464Z,34.29
2023-03-07T16:57:57.948Z,34.73
2023-03-07T17:03:04.532Z,34.52
2023-03-07T17:08:09.943Z,34.22
2023-03-07T17:13:18.718Z,34.89
2023-03-07T17:18:23.664Z,34.02
2023-03-07T17:23:28.279Z,34.67
2023-03-07T17:28:32.880Z,34.71
2023-03-07T17:33:37.569Z,34.52
2023-03-07T17:38:42.118Z,35.10
2023-03-07T17:43:46.657Z,35.76
2023-03-07T17:48:51.263Z,35.85
2023-03-07T17:53:55.338Z,35.23
2023-03-07T17:59:03.356Z,35.25
2023-03-07T18:04:07.853Z,34.02
2023-03-07T18:09:12.891Z,35.59
2023-03-07T18:14:17.612Z,35.01
2023-03-07T18:19:27.233Z,35.34
2023-03-07T18:24:32.108Z,35.17
2023-03-07T18:29:40.442Z,35.42
2023-03-07T18:34:45.407Z,35.61
2023-03-07T18:39:50.154Z,35.83
2023-03-07T18:44:54.920Z,36.04
2023-03-07T18:49:59.581Z,36.88
2023-03-07T18:55:04.140Z,37.24
2023-03-07T19:00:12.507Z,36.84
2023-03-07T19:05:17.292Z,36.29
2023-03-07T19:10:21.997Z,36.43
2023-03-07T19:15:26.610Z,36.29
2023-03-07T19:20:31.263Z,37.97
2023-03-07T19:25:38.956Z,36.52
2023-03-07T19:30:43.650Z,37.64
2023-03-07T19:35:47.783Z,36.00
2023-03-07T19:40:52.383Z,36.80
2023-03-07T19:45:57.671Z,35.73
2023-03-07T19:51:02.438Z,35.95
2023-03-07T19:56:21.855Z,35.86
2023-03-07T20:01:27.179Z,36.80
2023-03-07T20:06:33.568Z,36.15
2023-03-07T20:11:41.358Z,36.33
2023-03-07T20:16:46.020Z,36.19
2023-03-07T20:21:51.564Z,35.16
2023-03-07T20:26:56.335Z,34.19
2023-03-07T20:32:00.640Z,34.86
2023-03-07T20:37:05.326Z,35.88
2023-03-07T20:42:09.978Z,36.02
2023-03-07T20:47:14.652Z,36.31
2023-03-07T20:52:19.439Z,36.33
2023-03-07T20:57:24.308Z,36.47
2023-03-07T21:02:28.958Z,36.76
2023-03-07T21:07:33.617Z,35.73
2023-03-07T21:12:38.277Z,35.59
2023-03-07T21:17:43.209Z,35.30
2023-03-07T21:22:48.080Z,35.19
2023-03-07T21:27:52.726Z,36.10
2023-03-07T21:32:58.876Z,35.75
2023-03-07T21:38:03.526Z,35.50
2023-03-07T21:43:08.213Z,35.34
2023-03-07T21:48:13.141Z,35.61
2023-03-07T21:53:18.043Z,35.53
2023-03-07T21:58:23.727Z,36.13
2023-03-07T22:03:30.509Z,36.94
2023-03-07T22:08:35.241Z,36.83
2023-03-07T22:13:41.490Z,35.84
2023-03-07T22:18:46.005Z,35.96
2023-03-07T22:23:50.728Z,36.25
2023-03-07T22:28:55.811Z,36.00
2023-03-07T22:34:01.361Z,36.63
2023-03-07T22:39:08.436Z,36.56
2023-03-07T22:44:13.292Z,35.64
2023-03-07T22:49:17.952Z,36.15
2023-03-07T22:54:22.631Z,35.83
2023-03-07T22:59:27.397Z,35.44
2023-03-07T23:04:32.341Z,35.75
2023-03-07T23:09:36.955Z,36.24
2023-03-07T23:14:41.587Z,36.67
2023-03-07T23:19:46.270Z,36.32
2023-03-07T23:24:51.006Z,36.43
2023-03-07T23:29:55.664Z,35.81
2023-03-07T23:35:00.413Z,35.84
2023-03-07T23:40:06.249Z,36.63
2023-03-07T23:45:11.480Z,35.71
2023-03-07T23:50:17.151Z,35.92
2023-03-07T23:55:22.019Z,35.44
